Meteo Giornale » Osservazioni meteo Slovenia » Ljubljana-Brnik

ore: 09:30 - Osservazioni Meteo Ljubljana-Brnik
Lat. 46° 13' N Lon. 14° 29' E Alt. 385 metri s.l.m.

sereno Europe/Ljubljana

9 °C

Sereno

Temp. 24 Ore

-2 °C

18 °C

Nord

3.7 Km/h

Dew point -2 °C

Umidità 45 %

Visibilità  10 Km

Il sole sorge alle ore 06:26

Il sole tramonta alle ore 19:40

Data e Ora Cielo e Fenomeni T °C DP °C Um. % Pres. hPa Vis. km Vento km/h
Oggi h: 09:30 sereno Sereno 9 -2 45 1032 10 N 3.7
Oggi h: 09:00 sereno Sereno 7 -2 52 1031 10 N 3.7
Oggi h: 08:30 sereno Sereno 5 -1 65 1031 10 N 5.5
Oggi h: 08:00 sereno Sereno 2 -1 80 1031 10 N 5.5
Oggi h: 07:30 sereno Sereno -1 -3 86 1031 10 N 1.8
Oggi h: 07:00 sereno Sereno -2 -4 86 1031 10 N 3.7
Oggi h: 06:30 sereno Sereno -2 -5 79 1030 10 N 1.8
Oggi h: 06:00 sereno Sereno -2 -4 86 1030 10 N 1.8
Oggi h: 05:30 sereno Sereno -2 -4 86 1030 10 N 3.7
Oggi h: 05:00 sereno Sereno -1 -4 80 1030 10 N 3.7
Oggi h: 04:30 sereno Sereno 0 -4 74 1030 10 N 3.7
Oggi h: 04:00 sereno Sereno 0 -4 74 1030 10 O/NO 7.4
Oggi h: 03:30 sereno Sereno 1 -4 69 1030 10 N 1.8
Oggi h: 03:00 sereno Sereno 1 -4 69 1030 10 N 1.8
Oggi h: 02:30 sereno Sereno 2 -4 64 1030 10 O 9.3
Oggi h: 02:00 sereno Sereno 2 -4 64 1030 10 O 9.3
Oggi h: 01:30 sereno Sereno 2 -3 69 1030 10 O/NO 7.4
Oggi h: 01:00 sereno Sereno 2 -3 69 1030 10 O/NO 7.4
Oggi h: 00:30 sereno Sereno 5 -3 56 1030 10 O/NO 7.4
Oggi h: 00:00 sereno Sereno 6 -3 52 1030 10 O/NO 7.4
Ieri h: 23:30 sereno Sereno 8 -5 39 1030 10 E/SE 7.4
Ieri h: 23:00 sereno Sereno 9 -6 33 1030 10 E/SE 13
Ieri h: 22:30 sereno Sereno 12 -6 27 1029 10 E 20.3
Ieri h: 22:00 sereno Sereno 12 -6 27 1029 10 E 20.3
Ieri h: 21:30 sereno Sereno 14 -6 24 1029 10 E 24
Ieri h: 21:00 sereno Sereno 13 -5 28 1028 10 E 22.2
Ieri h: 20:30 sereno Sereno 13 -4 30 1028 10 E 20.3
Ieri h: 20:00 sereno Sereno 14 -4 28 1027 10 E 18.5
Ieri h: 19:30 sereno Sereno 14 -2 32 1027 10 E 18.5
Ieri h: 19:00 sereno Sereno 16 -2 29 1026 10 E/SE 18.5
Ieri h: 18:30 sereno Sereno 17 -2 27 1026 10 E/SE 18.5
Ieri h: 18:00 sereno Sereno 18 -3 23 1026 10 E/SE 22.2
Ieri h: 17:30 sereno Sereno 18 -3 23 1026 10 E 20.3
Ieri h: 17:00 sereno Sereno 18 -3 23 1026 10 E 24
Ieri h: 16:30 sereno Sereno 18 -3 23 1026 10 E 20.3
Ieri h: 16:00 sereno Sereno 18 -2 25 1027 10 E 22.2
Ieri h: 15:30 poco_nuvoloso Poco Nuvoloso 18 -0 29 1027 10 E 20.3
Ieri h: 15:00 poco_nuvoloso Poco Nuvoloso 18 1 31 1027 10 E 16.7
Ieri h: 14:30 poco_nuvoloso Poco Nuvoloso 18 1 31 1027 10 SE 16.7
Ieri h: 14:00 poco_nuvoloso Poco Nuvoloso 18 -1 27 1028 10 E 20.3
Ieri h: 13:30 poco_nuvoloso Poco Nuvoloso 18 -2 25 1028 10 E/SE 20.3
Ieri h: 13:00 poco_nuvoloso Poco Nuvoloso 17 -1 29 1028 10 E/SE 20.3
Ieri h: 12:30 poco_nuvoloso Poco Nuvoloso 17 -1 29 1028 10 E/SE 20.3
Ieri h: 11:30 poco_nuvoloso Poco Nuvoloso 16 0 33 1028 10 E 9.3
Ieri h: 11:00 poco_nuvoloso Poco Nuvoloso 15 1 38 1029 10 E/SE 11.1